ESMT/HAD METAR and TAF weather

Enter ICAO airport designator
Station Type Date Time Source
ESMT METAR 2022/05/24 12:50 UTC NOAA

ESMT 241250Z 19005KT 140V220 2900 DZ BKN003 BKN007 12/12 Q1002


Station Type Date Time Source
ESMT Decoded METAR 2022/05/24 12:50 UTC NOAA

Halmstad Swedish Air Force Base , Sweden (ESMT) 56-41N 012-50E
May 24, 2022 - 08:50 AM EDT / 2022.05.24 1250 UTC
Wind: from the S (190 degrees) at 6 MPH (5 KT) (direction variable):0
Visibility: 1 mile(s):0
Sky conditions: mostly cloudy
Weather: drizzle
Temperature: 53 F (12 C)
Dew Point: 53 F (12 C)
Relative Humidity: 100%
Pressure (altimeter): 29.59 in. Hg (1002 hPa)
ob: ESMT 241250Z 19005KT 140V220 2900 DZ BKN003 BKN007 12/12 Q1002
cycle: 13

Station Type Date Time Source
ESMT TAF 2020/11/01 07:40 UTC NOAA

TAF
AMD ESMT 010733Z 0107/0121 16010KT 9999 BKN012
TEMPO 0107/0109 2800 RADZ BR BKN003
BECMG 0109/0112 SCT012

Example: see airport list